EGTE/EXT METAR and TAF weather

Enter ICAO airport designator
Station Type Date Time Source
EGTE METAR 2019/04/21 09:50 UTC NOAA

EGTE 210950Z VRB01KT CAVOK 18/09 Q1021


Station Type Date Time Source
EGTE Decoded METAR 2019/04/21 09:50 UTC NOAA

Exeter Airport, United Kingdom (EGTE) 50-44N 003-25W
Apr 21, 2019 - 05:50 AM EDT / 2019.04.21 0950 UTC
Wind: Variable at 1 MPH (1 KT):0
Visibility: greater than 7 mile(s):0
Temperature: 64 F (18 C)
Dew Point: 48 F (9 C)
Relative Humidity: 55%
Pressure (altimeter): 30.15 in. Hg (1021 hPa)
ob: EGTE 210950Z VRB01KT CAVOK 18/09 Q1021
cycle: 10

Station Type Date Time Source
EGTE TAF 2012/04/19 12:15 UTC NOAA

TAF TAF EGTE 191401Z 1912/1924 31016KT 9999 SCT030 SCT035 PROB40
TEMPO 1915/1918 7000 SHRA BKN014

Example: see airport list